Spar Hydra — LAKL7 — position and weather

sailwx.info

Track history (hours):
 
Tides and Currents Weather Stations Pressure Air Temp Water Temp Dewpoint Dewpoint Depression Visibility Wind Speed Wind Dir Waves Ship Positions

Spar Hydra

Last reported at 2016-Aug-27 12:32 UTC. Time now 2016-Aug-27 13:27 UTC.
Position N 48°50' W 122°43'.

Length 190 m; draft 11.3 m.

Type: Cargo ship. MMSI: 259701000.

Date/timePositionNaut miles runAvg speedWind from/ knotsBaromVisibWave heightAir tempDewpointWater temp
2016-Aug-27 12:32N 48°50' W 122°43'0 0.0
2016-Aug-27 11:23N 48°50' W 122°43'0 0.0
2016-Aug-27 10:31N 48°50' W 122°43'0 0.0
2016-Aug-27 09:31N 48°50' W 122°43'0 0.0
2016-Aug-27 08:31N 48°50' W 122°43'0 0.0
2016-Aug-27 07:25N 48°50' W 122°43'0 0.0
2016-Aug-27 06:25N 48°50' W 122°43'0 0.0
2016-Aug-27 04:25N 48°50' W 122°43'0 0.0
2016-Aug-27 02:32N 48°50' W 122°43'0 0.0
2016-Aug-27 01:25N 48°50' W 122°43'0 0.0
2016-Aug-27 00:31N 48°50' W 122°43'0 0.0
2016-Aug-26 23:22N 48°50' W 122°43'0 0.0
2016-Aug-26 22:16N 48°50' W 122°43'0 0.0
2016-Aug-26 20:26N 48°50' W 122°43'0 0.0
2016-Aug-26 19:23N 48°50' W 122°43'0 0.0
2016-Aug-26 18:08N 48°50' W 122°43'0 0.0
2016-Aug-26 17:31N 48°50' W 122°43'0 0.0
2016-Aug-26 16:31N 48°50' W 122°43'0 0.0
2016-Aug-26 15:31N 48°50' W 122°43'0 0.0
2016-Aug-26 14:22N 48°50' W 122°43'0 0.0
2016-Aug-26 13:23N 48°50' W 122°43'0 0.0
2016-Aug-26 11:32N 48°50' W 122°43'0 0.0
2016-Aug-26 10:25N 48°50' W 122°43'0 0.0
2016-Aug-26 07:31N 48°50' W 122°43'0 0.0
2016-Aug-26 06:31N 48°50' W 122°43'0 0.0
2016-Aug-26 04:25N 48°50' W 122°43'0 0.0
2016-Aug-26 03:25N 48°50' W 122°43'0 0.0
2016-Aug-26 02:31N 48°50' W 122°43'0 0.0
2016-Aug-26 01:31N 48°50' W 122°43'0 0.0
2016-Aug-26 00:25N 48°50' W 122°43'0 0.0
2016-Aug-25 23:23N 48°50' W 122°43'0 0.0
2016-Aug-25 22:19N 48°50' W 122°43'0 0.0
2016-Aug-25 21:31N 48°50' W 122°43'0 0.0
2016-Aug-25 17:31N 48°50' W 122°43'0 0.0
2016-Aug-25 16:34N 48°50' W 122°43'1 0.7
2016-Aug-25 15:32N 48°50' W 122°44'0 0.0
2016-Aug-25 14:32N 48°50' W 122°44'0 0.0
2016-Aug-25 13:32N 48°50' W 122°44'0 0.0
2016-Aug-25 12:32N 48°50' W 122°44'0 0.0
2016-Aug-25 11:32N 48°50' W 122°44'0 0.0
2016-Aug-25 10:29N 48°50' W 122°44'0 0.1
2016-Aug-25 09:33N 48°50' W 122°44'1 0.7
2016-Aug-25 08:30N 48°50' W 122°43'0 0.0
2016-Aug-25 07:30N 48°50' W 122°43'0 0.0
2016-Aug-25 06:30N 48°50' W 122°43'0 0.0
2016-Aug-25 04:30N 48°50' W 122°43'0 0.0
2016-Aug-25 03:30N 48°50' W 122°43'0 0.0
2016-Aug-25 02:33N 48°50' W 122°43'0 0.0
2016-Aug-25 01:09N 48°50' W 122°43'0 0.0
2016-Aug-25 00:33N 48°50' W 122°43'0 0.0
2016-Aug-24 22:15N 48°50' W 122°43'0 0.0
2016-Aug-24 20:30N 48°50' W 122°43'0 0.0
2016-Aug-24 19:27N 48°50' W 122°43'0 0.0
2016-Aug-24 18:33N 48°50' W 122°43'0 0.0
2016-Aug-24 16:21N 48°50' W 122°43'1 0.7
2016-Aug-24 15:33N 48°50' W 122°43'5 5.2
2016-Aug-24 14:33N 48°45' W 122°46'10 9.9
2016-Aug-24 13:33N 48°37' W 122°36'2 1.8
2016-Aug-24 12:31N 48°36' W 122°34'0 0.1
2016-Aug-24 11:22N 48°36' W 122°34'0 0.0
2016-Aug-24 10:31N 48°36' W 122°34'0 0.0
2016-Aug-24 09:31N 48°36' W 122°34'0 0.0
2016-Aug-24 08:31N 48°36' W 122°34'0 0.0
2016-Aug-24 07:19N 48°36' W 122°34'0 0.1
2016-Aug-24 06:25N 48°36' W 122°34'0 0.1
2016-Aug-24 04:31N 48°36' W 122°34'0 0.1
2016-Aug-24 03:31N 48°36' W 122°34'0 0.0
2016-Aug-24 02:31N 48°36' W 122°34'0 0.0
2016-Aug-24 01:25N 48°36' W 122°34'0 0.0
2016-Aug-24 00:31N 48°36' W 122°34'0 0.1
2016-Aug-23 23:31N 48°36' W 122°34'0 0.0
2016-Aug-23 22:31N 48°36' W 122°34'0 0.0
2016-Aug-23 21:22N 48°36' W 122°34'0 0.0
2016-Aug-23 20:31N 48°36' W 122°34'0 0.0
2016-Aug-23 19:28N 48°36' W 122°34'0 0.2
2016-Aug-23 18:31N 48°36' W 122°34'0 0.1
2016-Aug-23 17:25N 48°36' W 122°34'0 0.1
2016-Aug-23 16:25N 48°36' W 122°34'1 0.6
2016-Aug-23 15:33N 48°37' W 122°35'1010.5
2016-Aug-23 14:34N 48°44' W 122°46'1212.1
2016-Aug-23 13:34N 48°51' W 123°01'1212.5
2016-Aug-23 12:34N 48°58' W 123°16'1211.6
2016-Aug-23 11:33N 49°09' W 123°23'1211.8
2016-Aug-23 10:34N 49°19' W 123°14'6 6.4
2016-Aug-23 09:34N 49°18' W 123°04'0 0.1
2016-Aug-23 08:31N 49°18' W 123°04'0 0.0
2016-Aug-23 07:31N 49°18' W 123°04'0 0.0
2016-Aug-23 06:31N 49°18' W 123°04'0 0.1
2016-Aug-23 05:31N 49°18' W 123°04'0 0.1
2016-Aug-23 04:31N 49°18' W 123°04'0 0.1
2016-Aug-23 03:31N 49°18' W 123°04'0 0.0
2016-Aug-23 02:32N 49°18' W 123°04'0 0.0
2016-Aug-23 01:31N 49°18' W 123°04'0 0.0
2016-Aug-23 00:31N 49°18' W 123°04'0 0.2
2016-Aug-22 23:31N 49°18' W 123°04'0 0.1
2016-Aug-22 22:31N 49°18' W 123°04'2 1.8
2016-Aug-22 21:34N 49°18' W 123°07'8 8.1
2016-Aug-22 20:34N 49°16' W 123°19'1211.5
2016-Aug-22 19:33N 49°05' W 123°21'1111.4
2016-Aug-22 18:33N 48°56' W 123°09'1110.5
2016-Aug-22 17:33N 48°47' W 123°01'1111.1
2016-Aug-22 16:33N 48°41' W 123°15'1211.7
2016-Aug-22 15:34N 48°30' W 123°11'1010.4
2016-Aug-22 14:33N 48°22' W 123°21'9 9.0
2016-Aug-22 13:32N 48°14' W 123°29'1010.3
2016-Aug-22 12:33N 48°13' W 123°44'1110.8
2016-Aug-22 11:33N 48°15' W 123°60'1111.0
2016-Aug-22 10:33N 48°20' W 124°15'1111.1
2016-Aug-22 09:33N 48°24' W 124°30'1010.2
2016-Aug-22 08:33N 48°29' W 124°44'1110.4
2016-Aug-22 07:33N 48°29' W 124°60'1110.8
2016-Aug-22 06:33N 48°28' W 125°16'9 8.8
2016-Aug-22 05:33N 48°28' W 125°29'1211.4
2016-Aug-22 04:30N 48°29' W 125°47'2311.7
2016-Aug-22 02:32N 48°31' W 126°22'14810.6
2016-Aug-21 12:29N 48°45' W 130°06'1311.6
2016-Aug-21 11:22N 48°46' W 130°25'3411.9
2016-Aug-21 08:31N 48°49' W 131°16'1212.3
2016-Aug-21 07:33N 48°50' W 131°34'1612.2
2016-Aug-21 06:14N 48°52' W 131°58'3312.0
2016-Aug-21 03:29N 48°55' W 132°49'  
Track history (hours):
 
Tides and Currents Weather Stations Pressure Air Temp Water Temp Dewpoint Dewpoint Depression Visibility Wind Speed Wind Dir Waves Ship Positions

Spar Hydra

Last reported at 2016-Aug-27 12:32 UTC. Time now 2016-Aug-27 13:27 UTC.
Position N 48°50' W 122°43'.

Length 190 m; draft 11.3 m.

Type: Cargo ship. MMSI: 259701000.

Date/timePositionNaut miles runAvg speedWind from/ knotsBaromVisibWave heightAir tempDewpointWater temp
2016-Aug-27 12:32N 48°50' W 122°43'0 0.0
2016-Aug-27 11:23N 48°50' W 122°43'0 0.0
2016-Aug-27 10:31N 48°50' W 122°43'0 0.0
2016-Aug-27 09:31N 48°50' W 122°43'0 0.0
2016-Aug-27 08:31N 48°50' W 122°43'0 0.0
2016-Aug-27 07:25N 48°50' W 122°43'0 0.0
2016-Aug-27 06:25N 48°50' W 122°43'0 0.0
2016-Aug-27 04:25N 48°50' W 122°43'0 0.0
2016-Aug-27 02:32N 48°50' W 122°43'0 0.0
2016-Aug-27 01:25N 48°50' W 122°43'0 0.0
2016-Aug-27 00:31N 48°50' W 122°43'0 0.0
2016-Aug-26 23:22N 48°50' W 122°43'0 0.0
2016-Aug-26 22:16N 48°50' W 122°43'0 0.0
2016-Aug-26 20:26N 48°50' W 122°43'0 0.0
2016-Aug-26 19:23N 48°50' W 122°43'0 0.0
2016-Aug-26 18:08N 48°50' W 122°43'0 0.0
2016-Aug-26 17:31N 48°50' W 122°43'0 0.0
2016-Aug-26 16:31N 48°50' W 122°43'0 0.0
2016-Aug-26 15:31N 48°50' W 122°43'0 0.0
2016-Aug-26 14:22N 48°50' W 122°43'0 0.0
2016-Aug-26 13:23N 48°50' W 122°43'0 0.0
2016-Aug-26 11:32N 48°50' W 122°43'0 0.0
2016-Aug-26 10:25N 48°50' W 122°43'0 0.0
2016-Aug-26 07:31N 48°50' W 122°43'0 0.0
2016-Aug-26 06:31N 48°50' W 122°43'0 0.0
2016-Aug-26 04:25N 48°50' W 122°43'0 0.0
2016-Aug-26 03:25N 48°50' W 122°43'0 0.0
2016-Aug-26 02:31N 48°50' W 122°43'0 0.0
2016-Aug-26 01:31N 48°50' W 122°43'0 0.0
2016-Aug-26 00:25N 48°50' W 122°43'0 0.0
2016-Aug-25 23:23N 48°50' W 122°43'0 0.0
2016-Aug-25 22:19N 48°50' W 122°43'0 0.0
2016-Aug-25 21:31N 48°50' W 122°43'0 0.0
2016-Aug-25 17:31N 48°50' W 122°43'0 0.0
2016-Aug-25 16:34N 48°50' W 122°43'1 0.7
2016-Aug-25 15:32N 48°50' W 122°44'0 0.0
2016-Aug-25 14:32N 48°50' W 122°44'0 0.0
2016-Aug-25 13:32N 48°50' W 122°44'0 0.0
2016-Aug-25 12:32N 48°50' W 122°44'0 0.0
2016-Aug-25 11:32N 48°50' W 122°44'0 0.0
2016-Aug-25 10:29N 48°50' W 122°44'0 0.1
2016-Aug-25 09:33N 48°50' W 122°44'1 0.7
2016-Aug-25 08:30N 48°50' W 122°43'0 0.0
2016-Aug-25 07:30N 48°50' W 122°43'0 0.0
2016-Aug-25 06:30N 48°50' W 122°43'0 0.0
2016-Aug-25 04:30N 48°50' W 122°43'0 0.0
2016-Aug-25 03:30N 48°50' W 122°43'0 0.0
2016-Aug-25 02:33N 48°50' W 122°43'0 0.0
2016-Aug-25 01:09N 48°50' W 122°43'0 0.0
2016-Aug-25 00:33N 48°50' W 122°43'0 0.0
2016-Aug-24 22:15N 48°50' W 122°43'0 0.0
2016-Aug-24 20:30N 48°50' W 122°43'0 0.0
2016-Aug-24 19:27N 48°50' W 122°43'0 0.0
2016-Aug-24 18:33N 48°50' W 122°43'0 0.0
2016-Aug-24 16:21N 48°50' W 122°43'1 0.7
2016-Aug-24 15:33N 48°50' W 122°43'5 5.2
2016-Aug-24 14:33N 48°45' W 122°46'10 9.9
2016-Aug-24 13:33N 48°37' W 122°36'2 1.8
2016-Aug-24 12:31N 48°36' W 122°34'0 0.1
2016-Aug-24 11:22N 48°36' W 122°34'0 0.0
2016-Aug-24 10:31N 48°36' W 122°34'0 0.0
2016-Aug-24 09:31N 48°36' W 122°34'0 0.0
2016-Aug-24 08:31N 48°36' W 122°34'0 0.0
2016-Aug-24 07:19N 48°36' W 122°34'0 0.1
2016-Aug-24 06:25N 48°36' W 122°34'0 0.1
2016-Aug-24 04:31N 48°36' W 122°34'0 0.1
2016-Aug-24 03:31N 48°36' W 122°34'0 0.0
2016-Aug-24 02:31N 48°36' W 122°34'0 0.0
2016-Aug-24 01:25N 48°36' W 122°34'0 0.0
2016-Aug-24 00:31N 48°36' W 122°34'0 0.1
2016-Aug-23 23:31N 48°36' W 122°34'0 0.0
2016-Aug-23 22:31N 48°36' W 122°34'0 0.0
2016-Aug-23 21:22N 48°36' W 122°34'0 0.0
2016-Aug-23 20:31N 48°36' W 122°34'0 0.0
2016-Aug-23 19:28N 48°36' W 122°34'0 0.2
2016-Aug-23 18:31N 48°36' W 122°34'0 0.1
2016-Aug-23 17:25N 48°36' W 122°34'0 0.1
2016-Aug-23 16:25N 48°36' W 122°34'1 0.6
2016-Aug-23 15:33N 48°37' W 122°35'1010.5
2016-Aug-23 14:34N 48°44' W 122°46'1212.1
2016-Aug-23 13:34N 48°51' W 123°01'1212.5
2016-Aug-23 12:34N 48°58' W 123°16'1211.6
2016-Aug-23 11:33N 49°09' W 123°23'1211.8
2016-Aug-23 10:34N 49°19' W 123°14'6 6.4
2016-Aug-23 09:34N 49°18' W 123°04'0 0.1
2016-Aug-23 08:31N 49°18' W 123°04'0 0.0
2016-Aug-23 07:31N 49°18' W 123°04'0 0.0
2016-Aug-23 06:31N 49°18' W 123°04'0 0.1
2016-Aug-23 05:31N 49°18' W 123°04'0 0.1
2016-Aug-23 04:31N 49°18' W 123°04'0 0.1
2016-Aug-23 03:31N 49°18' W 123°04'0 0.0
2016-Aug-23 02:32N 49°18' W 123°04'0 0.0
2016-Aug-23 01:31N 49°18' W 123°04'0 0.0
2016-Aug-23 00:31N 49°18' W 123°04'0 0.2
2016-Aug-22 23:31N 49°18' W 123°04'0 0.1
2016-Aug-22 22:31N 49°18' W 123°04'2 1.8
2016-Aug-22 21:34N 49°18' W 123°07'8 8.1
2016-Aug-22 20:34N 49°16' W 123°19'1211.5
2016-Aug-22 19:33N 49°05' W 123°21'1111.4
2016-Aug-22 18:33N 48°56' W 123°09'1110.5
2016-Aug-22 17:33N 48°47' W 123°01'1111.1
2016-Aug-22 16:33N 48°41' W 123°15'1211.7
2016-Aug-22 15:34N 48°30' W 123°11'1010.4
2016-Aug-22 14:33N 48°22' W 123°21'9 9.0
2016-Aug-22 13:32N 48°14' W 123°29'1010.3
2016-Aug-22 12:33N 48°13' W 123°44'1110.8
2016-Aug-22 11:33N 48°15' W 123°60'1111.0
2016-Aug-22 10:33N 48°20' W 124°15'1111.1
2016-Aug-22 09:33N 48°24' W 124°30'1010.2
2016-Aug-22 08:33N 48°29' W 124°44'1110.4
2016-Aug-22 07:33N 48°29' W 124°60'1110.8
2016-Aug-22 06:33N 48°28' W 125°16'9 8.8
2016-Aug-22 05:33N 48°28' W 125°29'1211.4
2016-Aug-22 04:30N 48°29' W 125°47'2311.7
2016-Aug-22 02:32N 48°31' W 126°22'14810.6
2016-Aug-21 12:29N 48°45' W 130°06'1311.6
2016-Aug-21 11:22N 48°46' W 130°25'3411.9
2016-Aug-21 08:31N 48°49' W 131°16'1212.3
2016-Aug-21 07:33N 48°50' W 131°34'1612.2
2016-Aug-21 06:14N 48°52' W 131°58'3312.0
2016-Aug-21 03:29N 48°55' W 132°49'  

Dump ship's entire track history